Time;durP1;ratioP1;P1;durP2;ratioP2;P2;SDS_P1;SDS_P2;PMS_P1;PMS_P2;Temp;Humidity;BMP_temperature;BMP_pressure;BME280_temperature;BME280_humidity;BME280_pressure;Samples;Min_cycle;Max_cycle;Signal;HPM_P1;HPM_P2
2023/09/10 00:04:45;;;;;;;4.97;4.07;;;;;;;17.19;100.00;97920.78;18570838;32;20496;-55
2023/09/10 00:14:47;;;;;;;4.90;4.07;;;;;;;17.07;100.00;97921.31;18570199;32;20061;-56
2023/09/10 00:24:50;;;;;;;4.55;4.05;;;;;;;17.00;100.00;97929.13;18555889;32;20350;-54
2023/09/10 00:34:52;;;;;;;6.07;3.80;;;;;;;16.97;100.00;97923.47;18554806;32;20052;-55
2023/09/10 00:44:54;;;;;;;7.47;4.03;;;;;;;16.90;100.00;97916.50;18567435;32;20057;-56
2023/09/10 00:54:57;;;;;;;6.37;4.28;;;;;;;16.81;100.00;97917.50;18540528;32;20104;-54
2023/09/10 01:05:00;;;;;;;6.90;3.97;;;;;;;16.79;100.00;97909.59;18566939;32;20073;-56
2023/09/10 01:15:15;;;;;;;5.55;4.15;;;;;;;16.78;100.00;97913.44;18540323;32;20110;-55
2023/09/10 01:25:18;;;;;;;5.47;3.70;;;;;;;16.77;100.00;97929.03;18565944;31;20057;-56
2023/09/10 01:35:31;;;;;;;4.37;3.97;;;;;;;16.75;100.00;97914.84;18565117;32;20090;-56
2023/09/10 01:45:35;;;;;;;5.13;4.07;;;;;;;16.73;100.00;97910.81;18564389;32;20052;-55
2023/09/10 01:55:37;;;;;;;7.32;4.28;;;;;;;16.69;100.00;97907.06;18564152;32;20103;-55
2023/09/10 02:05:42;;;;;;;5.05;4.55;;;;;;;16.66;100.00;97910.41;18563549;32;20092;-56
2023/09/10 02:15:44;;;;;;;5.45;4.57;;;;;;;16.64;100.00;97899.00;18562960;32;20053;-55
2023/09/10 02:25:47;;;;;;;8.40;4.72;;;;;;;16.60;100.00;97901.53;18535438;32;20387;-56
2023/09/10 02:35:49;;;;;;;4.80;4.18;;;;;;;16.49;100.00;97900.91;18561951;32;20143;-55
2023/09/10 02:45:52;;;;;;;5.55;4.30;;;;;;;16.33;100.00;97902.31;18561236;32;20475;-55
2023/09/10 02:56:01;;;;;;;4.80;4.30;;;;;;;16.18;100.00;97906.94;18560973;32;20061;-55
2023/09/10 03:06:12;;;;;;;5.82;4.70;;;;;;;16.10;100.00;97926.72;18560235;32;20070;-56
2023/09/10 03:16:14;;;;;;;5.05;4.55;;;;;;;16.03;100.00;97920.84;18560215;31;20064;-55
2023/09/10 03:26:17;;;;;;;5.00;4.50;;;;;;;15.97;100.00;97932.97;18559853;32;20045;-55
2023/09/10 03:36:19;;;;;;;4.93;4.40;;;;;;;15.91;100.00;97933.06;18559667;32;20065;-56
2023/09/10 03:46:21;;;;;;;5.10;4.28;;;;;;;15.87;100.00;97933.97;18429985;32;20058;-55
2023/09/10 03:56:25;;;;;;;5.87;4.55;;;;;;;15.79;100.00;97927.22;18429715;32;20389;-55
2023/09/10 04:06:27;;;;;;;5.07;4.57;;;;;;;15.73;100.00;97914.78;18430017;32;20116;-56
2023/09/10 04:16:30;;;;;;;5.80;4.78;;;;;;;15.65;100.00;97926.34;18434028;32;20101;-55
2023/09/10 04:26:33;;;;;;;5.62;4.87;;;;;;;15.57;100.00;97925.12;18438926;32;20101;-56
2023/09/10 04:36:36;;;;;;;6.45;4.82;;;;;;;15.47;100.00;97926.09;18442498;32;20054;-55
2023/09/10 04:46:38;;;;;;;8.77;4.72;;;;;;;15.38;100.00;97928.66;18568575;32;20402;-55
2023/09/10 04:56:41;;;;;;;6.25;4.47;;;;;;;15.32;100.00;97929.88;18567669;32;20124;-56
2023/09/10 05:06:43;;;;;;;7.32;4.95;;;;;;;15.27;100.00;97929.13;18566847;32;20067;-56
2023/09/10 05:16:45;;;;;;;7.95;5.50;;;;;;;15.25;100.00;97943.03;18566644;32;20109;-55
2023/09/10 05:26:48;;;;;;;7.62;5.03;;;;;;;15.27;100.00;97937.31;18565938;32;20064;-54
2023/09/10 05:36:51;;;;;;;7.97;6.03;;;;;;;15.27;100.00;97954.44;18565333;32;20380;-54
2023/09/10 05:46:54;;;;;;;6.23;5.43;;;;;;;15.33;100.00;97952.47;18564786;32;20071;-56
2023/09/10 05:56:56;;;;;;;5.40;4.65;;;;;;;15.44;100.00;97961.31;18549897;32;20435;-55
2023/09/10 06:07:03;;;;;;;6.85;5.47;;;;;;;15.63;100.00;97972.19;18549532;32;20052;-56
2023/09/10 06:17:06;;;;;;;8.20;5.03;;;;;;;15.88;100.00;97974.56;18563018;32;20049;-56
2023/09/10 06:27:08;;;;;;;5.30;4.80;;;;;;;16.17;100.00;97981.72;18562327;32;20097;-56
2023/09/10 06:37:11;;;;;;;4.75;4.28;;;;;;;16.46;100.00;97972.50;18560703;32;20104;-56
2023/09/10 06:47:13;;;;;;;5.32;4.75;;;;;;;16.81;100.00;97977.56;18561333;32;20338;-56
2023/09/10 06:57:16;;;;;;;4.47;4.07;;;;;;;17.16;100.00;97989.72;18560657;31;20053;-54
2023/09/10 07:07:18;;;;;;;5.28;4.78;;;;;;;17.55;100.00;97991.03;18560503;32;20386;-56
2023/09/10 07:17:21;;;;;;;4.78;4.10;;;;;;;17.94;100.00;98002.53;18560309;32;20108;-56
2023/09/10 07:27:24;;;;;;;8.40;4.30;;;;;;;18.37;100.00;98020.34;18559835;32;20100;-56
2023/09/10 07:37:27;;;;;;;4.07;3.77;;;;;;;18.71;100.00;98025.19;18559359;32;20071;-56
2023/09/10 07:47:29;;;;;;;5.10;4.12;;;;;;;19.12;100.00;98023.31;18560553;31;20064;-56
2023/09/10 07:57:32;;;;;;;6.07;4.73;;;;;;;19.57;100.00;98014.84;18571497;32;20069;-56
2023/09/10 08:07:35;;;;;;;5.93;4.67;;;;;;;20.09;100.00;98024.25;18571021;32;20052;-56
2023/09/10 08:17:37;;;;;;;5.60;4.82;;;;;;;20.56;100.00;98026.28;18569988;32;20350;-57
2023/09/10 08:27:41;;;;;;;6.30;5.70;;;;;;;21.03;100.00;98025.50;18569709;32;20104;-57
2023/09/10 08:37:44;;;;;;;6.05;5.05;;;;;;;21.43;100.00;98023.19;18568764;32;20094;-57
2023/09/10 08:47:49;;;;;;;6.72;5.20;;;;;;;21.85;100.00;98033.44;18554451;32;20372;-57
2023/09/10 08:57:56;;;;;;;5.43;4.93;;;;;;;22.27;100.00;98032.59;18553495;32;20060;-57
2023/09/10 09:08:09;;;;;;;6.20;5.10;;;;;;;22.69;100.00;98027.00;18567014;32;20091;-57
2023/09/10 09:18:16;;;;;;;6.70;6.07;;;;;;;23.07;100.00;98019.59;18566661;32;20100;-57
2023/09/10 09:28:20;;;;;;;8.98;6.20;;;;;;;23.42;100.00;98006.16;18552054;32;20056;-57
2023/09/10 09:38:22;;;;;;;8.38;7.45;;;;;;;23.78;100.00;98009.19;18564953;31;20071;-57
2023/09/10 09:48:25;;;;;;;7.12;6.35;;;;;;;24.10;100.00;98003.81;18564670;32;20048;-57
2023/09/10 09:58:29;;;;;;;7.50;6.30;;;;;;;24.43;100.00;97994.44;18564020;32;20056;-57
2023/09/10 10:08:32;;;;;;;7.30;6.60;;;;;;;24.80;100.00;97988.72;18563470;32;20037;-57
2023/09/10 10:18:36;;;;;;;7.80;7.00;;;;;;;25.14;100.00;97983.59;18548440;32;20053;-57
2023/09/10 10:28:40;;;;;;;8.93;7.18;;;;;;;25.44;100.00;97964.53;18562120;31;20075;-56
2023/09/10 10:38:45;;;;;;;8.05;7.07;;;;;;;25.70;100.00;97952.03;18561395;32;20060;-57
2023/09/10 10:48:48;;;;;;;7.55;6.62;;;;;;;25.98;100.00;97951.00;18547503;32;20049;-56
2023/09/10 10:58:52;;;;;;;10.95;7.35;;;;;;;26.27;100.00;97962.66;18561072;32;20087;-57
2023/09/10 11:08:56;;;;;;;8.82;7.18;;;;;;;26.57;100.00;97946.19;18560238;32;20075;-57
2023/09/10 11:19:00;;;;;;;7.47;6.78;;;;;;;26.88;100.00;97930.47;18560528;32;20060;-57
2023/09/10 11:29:04;;;;;;;8.18;7.40;;;;;;;27.30;100.00;97925.91;18569919;32;20079;-57
2023/09/10 11:39:08;;;;;;;8.60;7.70;;;;;;;27.58;100.00;97921.97;18572572;31;20063;-57
2023/09/10 11:49:11;;;;;;;8.90;7.97;;;;;;;27.93;100.00;97929.94;18558369;32;20105;-57
2023/09/10 11:59:15;;;;;;;9.80;8.60;;;;;;;28.23;100.00;97915.16;18571411;32;20104;-57
2023/09/10 12:09:18;;;;;;;8.95;8.05;;;;;;;28.69;100.00;97914.03;18570861;32;20120;-57
2023/09/10 12:19:22;;;;;;;8.02;7.10;;;;;;;29.19;100.00;97905.22;18569935;31;20124;-57
2023/09/10 12:29:24;;;;;;;8.68;7.82;;;;;;;29.65;100.00;97895.53;18569666;32;20068;-57
2023/09/10 12:39:28;;;;;;;7.95;7.25;;;;;;;30.00;94.23;97891.28;18553765;32;20075;-58
2023/09/10 12:49:32;;;;;;;8.35;7.15;;;;;;;30.24;76.85;97884.16;18568476;32;20056;-57
2023/09/10 12:59:36;;;;;;;8.40;7.50;;;;;;;30.73;84.39;97874.22;18554276;32;20049;-57
2023/09/10 13:09:39;;;;;;;8.23;7.20;;;;;;;31.14;78.71;97864.59;18567230;32;20128;-58
2023/09/10 13:19:42;;;;;;;7.30;6.37;;;;;;;31.50;70.78;97852.50;18566434;32;20365;-57
2023/09/10 13:29:45;;;;;;;7.15;5.53;;;;;;;31.83;69.29;97851.16;18565994;32;20072;-57
2023/09/10 13:39:48;;;;;;;6.78;6.10;;;;;;;31.95;51.17;97846.31;18565233;32;20119;-57
2023/09/10 13:49:52;;;;;;;6.62;5.93;;;;;;;32.27;58.46;97837.72;18564797;32;20117;-58
2023/09/10 13:59:54;;;;;;;7.45;6.28;;;;;;;32.60;59.10;97829.81;18564214;32;20100;-57
2023/09/10 14:09:58;;;;;;;7.28;6.57;;;;;;;32.73;58.09;97830.16;18563403;31;20072;-58
2023/09/10 14:20:03;;;;;;;6.75;6.15;;;;;;;32.51;51.82;97829.53;18562902;32;20060;-57
2023/09/10 14:30:07;;;;;;;9.57;6.55;;;;;;;31.86;65.79;97816.81;18562272;32;20066;-57
2023/09/10 14:40:12;;;;;;;6.53;5.93;;;;;;;31.14;71.01;97813.56;18547568;32;20060;-57
2023/09/10 14:50:15;;;;;;;6.90;5.97;;;;;;;30.97;81.10;97801.97;18561196;32;20436;-57
2023/09/10 15:00:19;;;;;;;6.20;5.60;;;;;;;30.56;77.38;97797.72;18546466;32;20120;-58
2023/09/10 15:10:22;;;;;;;6.22;5.62;;;;;;;30.22;67.63;97791.72;18560286;32;20075;-57
2023/09/10 15:20:26;;;;;;;6.55;5.95;;;;;;;29.77;71.78;97772.56;18560857;32;20052;-57
2023/09/10 15:30:29;;;;;;;6.78;5.87;;;;;;;29.33;79.72;97771.66;18545854;32;20060;-57
2023/09/10 15:40:31;;;;;;;6.18;5.57;;;;;;;28.95;84.17;97756.38;18559546;32;20092;-57
2023/09/10 15:50:35;;;;;;;7.18;6.30;;;;;;;28.57;86.54;97754.56;18545556;32;20065;-56
2023/09/10 16:00:40;;;;;;;6.75;6.03;;;;;;;28.19;92.18;97753.91;18558960;31;20086;-57
2023/09/10 16:10:43;;;;;;;7.43;6.55;;;;;;;27.83;94.85;97744.44;18563068;32;20071;-57
2023/09/10 16:20:46;;;;;;;7.68;6.97;;;;;;;27.49;99.04;97742.56;18570041;32;20101;-57
2023/09/10 16:30:49;;;;;;;7.05;6.35;;;;;;;27.14;100.00;97742.94;18569665;32;20068;-56
2023/09/10 16:40:54;;;;;;;7.03;6.32;;;;;;;26.78;100.00;97737.72;18568545;32;20484;-56
2023/09/10 16:50:57;;;;;;;7.25;5.75;;;;;;;26.44;100.00;97734.84;18568284;32;20346;-56
2023/09/10 17:01:00;;;;;;;6.47;5.65;;;;;;;26.10;100.00;97739.50;18567842;32;20053;-56
2023/09/10 17:11:03;;;;;;;6.62;5.65;;;;;;;25.75;100.00;97741.28;18567380;32;20049;-57
2023/09/10 17:21:06;;;;;;;6.53;5.12;;;;;;;25.39;100.00;97740.62;18566412;32;20333;-56
2023/09/10 17:31:09;;;;;;;6.30;5.28;;;;;;;25.00;100.00;97744.19;18565956;32;20433;-56
2023/09/10 17:41:13;;;;;;;6.68;5.75;;;;;;;24.58;100.00;97742.09;18565284;32;20089;-56
2023/09/10 17:51:17;;;;;;;5.68;5.18;;;;;;;24.17;100.00;97741.56;18564377;31;20056;-56
2023/09/10 18:01:24;;;;;;;6.70;6.00;;;;;;;23.79;100.00;97745.72;18549935;32;20135;-56
2023/09/10 18:11:28;;;;;;;7.03;5.32;;;;;;;23.40;100.00;97757.34;18549626;32;20056;-57
2023/09/10 18:21:31;;;;;;;8.52;5.47;;;;;;;23.01;100.00;97760.59;18563181;32;20064;-57
2023/09/10 18:31:34;;;;;;;7.75;5.20;;;;;;;22.70;100.00;97777.00;18561558;32;20101;-56
2023/09/10 18:41:38;;;;;;;6.03;5.20;;;;;;;22.36;100.00;97782.66;18561919;32;20052;-56
2023/09/10 18:52:04;;;;;;;6.70;5.25;;;;;;;21.99;100.00;97783.44;18561281;32;20094;-56
2023/09/10 19:02:07;;;;;;;5.85;4.72;;;;;;;21.67;100.00;97785.91;18546731;32;20053;-56
2023/09/10 19:12:09;;;;;;;;;;;;;;;21.43;100.00;97788.56;18561073;32;20056;-57
2023/09/10 19:22:12;;;;;;;10.73;5.90;;;;;;;21.23;100.00;97803.97;18560706;32;20023;-56
2023/09/10 19:32:15;;;;;;;5.53;4.82;;;;;;;21.02;100.00;97810.25;18559906;32;20056;-56
2023/09/10 19:42:17;;;;;;;5.27;4.77;;;;;;;20.80;100.00;97805.91;18559822;32;20448;-56
2023/09/10 19:52:20;;;;;;;8.65;5.40;;;;;;;20.57;100.00;97811.69;18571966;32;20155;-56
2023/09/10 20:02:22;;;;;;;6.10;4.80;;;;;;;20.40;100.00;97809.03;18571558;32;20455;-56
2023/09/10 20:12:25;;;;;;;6.63;5.17;;;;;;;20.20;100.00;97811.41;18570944;32;20064;-56
2023/09/10 20:22:28;;;;;;;6.75;5.12;;;;;;;20.05;100.00;97817.41;18570320;32;20124;-56
2023/09/10 20:32:30;;;;;;;7.30;4.93;;;;;;;19.88;100.00;97808.13;18569637;32;20056;-55
2023/09/10 20:42:33;;;;;;;6.23;5.27;;;;;;;19.73;100.00;97812.16;18568642;32;20338;-56
2023/09/10 20:52:36;;;;;;;5.80;5.10;;;;;;;19.61;100.00;97806.53;18554157;32;20374;-56
2023/09/10 21:02:39;;;;;;;6.25;5.57;;;;;;;19.48;100.00;97814.63;18567140;32;20052;-56
2023/09/10 21:12:42;;;;;;;5.00;4.53;;;;;;;19.41;100.00;97811.59;18567466;32;20111;-55
2023/09/10 21:22:50;;;;;;;6.47;5.47;;;;;;;19.22;100.00;97814.66;18567204;32;20079;-55
2023/09/10 21:32:53;;;;;;;5.07;4.57;;;;;;;19.09;100.00;97815.63;18565829;32;20386;-56
2023/09/10 21:42:56;;;;;;;8.68;5.50;;;;;;;18.96;100.00;97820.94;18565081;32;20093;-55
2023/09/10 21:52:58;;;;;;;8.93;5.40;;;;;;;18.85;100.00;97819.63;18564768;32;20101;-56
2023/09/10 22:03:01;;;;;;;8.17;5.60;;;;;;;18.74;100.00;97815.59;18564154;32;20073;-56
2023/09/10 22:13:04;;;;;;;5.63;5.00;;;;;;;18.64;100.00;97816.72;18563534;32;20429;-56
2023/09/10 22:23:07;;;;;;;5.47;4.97;;;;;;;18.55;100.00;97815.88;18562747;31;20071;-56
2023/09/10 22:33:09;;;;;;;6.22;5.53;;;;;;;18.40;100.00;97808.91;18562752;32;20036;-56
2023/09/10 22:43:12;;;;;;;6.43;5.47;;;;;;;18.24;100.00;97814.84;18561816;32;20366;-55
2023/09/10 22:53:15;;;;;;;7.67;4.80;;;;;;;18.10;100.00;97814.13;18561775;32;20075;-54
2023/09/10 23:03:17;;;;;;;8.57;5.70;;;;;;;17.99;100.00;97805.37;18560950;32;20361;-56
2023/09/10 23:13:20;;;;;;;5.80;5.30;;;;;;;17.92;100.00;97818.72;18560774;32;20424;-56
2023/09/10 23:23:23;;;;;;;6.05;5.45;;;;;;;17.79;100.00;97809.47;18554215;31;20079;-56
2023/09/10 23:33:25;;;;;;;8.37;5.80;;;;;;;17.67;100.00;97806.50;18573860;32;20048;-56
2023/09/10 23:43:28;;;;;;;6.45;5.47;;;;;;;17.59;100.00;97795.19;18572981;31;20049;-56
2023/09/10 23:53:30;;;;;;;10.50;5.60;;;;;;;17.54;100.00;97787.12;18572182;32;20041;-56
